Time;durP1;ratioP1;P1;durP2;ratioP2;P2;SDS_P1;SDS_P2;PMS_P1;PMS_P2;Temp;Humidity;BMP_temperature;BMP_pressure;BME280_temperature;BME280_humidity;BME280_pressure;Samples;Min_cycle;Max_cycle;Signal;HPM_P1;HPM_P2
2022/04/21 00:00:34;;;;;;;7.75;4.65;;;;;;;16.12;59.56;97856.41;5090760;28;20058;-50
2022/04/21 00:03:00;;;;;;;5.88;4.57;;;;;;;16.20;59.31;97868.34;5092097;28;20031;-50
2022/04/21 00:05:26;;;;;;;6.10;4.43;;;;;;;16.12;59.12;97859.84;5092032;28;20031;-50
2022/04/21 00:07:53;;;;;;;5.65;4.18;;;;;;;16.05;59.42;97869.06;5091943;28;20447;-49
2022/04/21 00:10:19;;;;;;;6.18;4.13;;;;;;;15.94;59.61;97866.34;5091991;28;20051;-50
2022/04/21 00:12:45;;;;;;;9.57;4.78;;;;;;;15.77;59.90;97860.41;5091978;28;20028;-50
2022/04/21 00:15:12;;;;;;;17.17;11.63;;;;;;;15.71;60.45;97856.09;5091904;28;20039;-50
2022/04/21 00:17:38;;;;;;;5.55;3.45;;;;;;;15.82;60.22;97859.66;5091916;28;20016;-51
2022/04/21 00:20:05;;;;;;;6.50;4.00;;;;;;;15.81;60.18;97855.41;5091780;28;20054;-51
2022/04/21 00:25:15;;;;;;;9.02;4.68;;;;;;;15.77;60.23;97848.00;5091868;28;20093;-50
2022/04/21 00:27:44;;;;;;;6.70;4.15;;;;;;;15.77;60.27;97845.34;5091729;28;20016;-50
2022/04/21 00:30:11;;;;;;;5.03;4.13;;;;;;;15.73;60.38;97848.72;5091796;28;20016;-50
2022/04/21 00:32:38;;;;;;;8.75;4.10;;;;;;;15.73;60.61;97849.53;5090448;28;20444;-50
2022/04/21 00:35:06;;;;;;;8.77;3.80;;;;;;;15.69;60.47;97839.69;5091683;28;20036;-51
2022/04/21 00:37:32;;;;;;;5.55;4.40;;;;;;;15.59;61.22;97840.41;5092036;28;20039;-50
2022/04/21 00:39:59;;;;;;;8.73;4.28;;;;;;;15.52;61.43;97827.41;5095858;28;20020;-50
2022/04/21 00:42:25;;;;;;;10.93;5.40;;;;;;;15.53;61.49;97828.19;5095809;28;20443;-50
2022/04/21 00:44:51;;;;;;;5.25;4.65;;;;;;;15.50;62.07;97832.16;5096140;28;20370;-50
2022/04/21 00:47:20;;;;;;;8.38;5.75;;;;;;;15.42;62.59;97831.81;5095631;28;20030;-50
2022/04/21 00:49:48;;;;;;;5.50;4.72;;;;;;;15.58;63.01;97831.69;5095998;28;20389;-50
2022/04/21 00:52:16;;;;;;;14.68;5.30;;;;;;;15.77;62.42;97818.88;5095621;28;20027;-50
2022/04/21 00:54:42;;;;;;;6.38;4.05;;;;;;;15.78;61.74;97819.69;5095600;28;20020;-50
2022/04/21 00:57:09;;;;;;;6.80;5.20;;;;;;;15.74;62.09;97808.00;5095566;28;20028;-50
2022/04/21 00:59:35;;;;;;;8.75;6.88;;;;;;;15.71;61.85;97809.28;5095540;28;20524;-51
2022/04/21 01:04:49;;;;;;;5.50;4.50;;;;;;;15.70;62.00;97809.56;5095735;28;20447;-50
2022/04/21 01:07:16;;;;;;;6.45;4.28;;;;;;;15.60;61.78;97820.06;5093957;28;20027;-51
2022/04/21 01:09:42;;;;;;;16.38;12.60;;;;;;;15.51;62.25;97807.31;5095371;28;20020;-50
2022/04/21 01:12:09;;;;;;;7.15;4.95;;;;;;;15.57;62.19;97810.75;5095214;28;20031;-50
2022/04/21 01:14:39;;;;;;;8.13;7.22;;;;;;;15.60;62.33;97797.03;5095256;28;20488;-50
2022/04/21 01:17:05;;;;;;;16.85;9.48;;;;;;;15.74;62.97;97802.72;5093836;28;20052;-50
2022/04/21 01:19:32;;;;;;;13.10;5.85;;;;;;;15.87;62.36;97801.47;5095133;28;20020;-50
2022/04/21 01:21:58;;;;;;;10.18;5.18;;;;;;;15.88;61.89;97790.63;5095035;28;20024;-49
2022/04/21 01:24:26;;;;;;;13.25;5.80;;;;;;;15.84;61.59;97797.50;5095002;28;20497;-51
2022/04/21 01:26:54;;;;;;;6.60;4.15;;;;;;;15.75;61.78;97797.19;5095009;28;20020;-51
2022/04/21 01:29:20;;;;;;;9.98;5.72;;;;;;;15.73;61.59;97790.53;5094812;28;20047;-49
2022/04/21 01:31:46;;;;;;;14.80;8.52;;;;;;;15.77;61.54;97789.78;5094879;28;20612;-51
2022/04/21 01:34:12;;;;;;;10.63;6.10;;;;;;;15.88;61.57;97792.50;5093527;28;20020;-50
2022/04/21 01:41:08;;;;;;;9.48;3.88;;;;;;;16.00;60.95;97784.31;5094531;28;20425;-51
2022/04/21 01:42:15;;;;;;;8.95;6.15;;;;;;;16.21;60.06;97786.00;5094740;28;20041;-50
2022/04/21 01:44:43;;;;;;;9.05;4.53;;;;;;;16.31;59.61;97786.03;5095008;28;20020;-50
2022/04/21 01:47:09;;;;;;;8.95;4.13;;;;;;;16.28;59.07;97775.16;5094486;28;20020;-49
2022/04/21 01:49:35;;;;;;;9.63;5.68;;;;;;;16.20;59.39;97775.66;5094111;28;20028;-49
2022/04/21 01:52:01;;;;;;;8.60;4.78;;;;;;;16.16;59.50;97773.56;5094530;28;20024;-51
2022/04/21 01:54:27;;;;;;;6.88;4.50;;;;;;;16.30;59.03;97783.69;5094429;28;20031;-50
2022/04/21 01:56:53;;;;;;;9.10;5.25;;;;;;;16.30;59.21;97773.09;5094421;28;20099;-49
2022/04/21 01:59:19;;;;;;;5.68;3.30;;;;;;;16.42;58.25;97776.31;5094391;28;20016;-50
2022/04/21 02:01:45;;;;;;;8.35;3.80;;;;;;;16.37;58.31;97773.63;5094303;28;20024;-50
2022/04/21 02:04:10;;;;;;;11.60;4.88;;;;;;;16.36;58.53;97764.09;5092957;28;20016;-50
2022/04/21 02:06:36;;;;;;;6.00;4.47;;;;;;;16.39;58.43;97766.22;5094226;28;20512;-49
2022/04/21 02:09:02;;;;;;;9.13;5.05;;;;;;;16.42;58.40;97768.34;5094084;28;20016;-50
2022/04/21 02:11:28;;;;;;;8.60;4.18;;;;;;;16.53;58.16;97766.53;5094129;28;20077;-50
2022/04/21 02:13:54;;;;;;;7.28;4.45;;;;;;;16.53;57.43;97755.94;5092743;28;20382;-50
2022/04/21 02:16:20;;;;;;;8.95;4.50;;;;;;;16.35;58.01;97765.16;5092682;28;20031;-50
2022/04/21 02:18:47;;;;;;;10.52;5.45;;;;;;;16.31;58.28;97762.22;5092638;28;20020;-50
2022/04/21 02:21:13;;;;;;;6.70;3.28;;;;;;;16.34;58.10;97758.28;5092605;28;20078;-49
2022/04/21 02:23:38;;;;;;;11.68;4.50;;;;;;;16.30;58.19;97757.19;5092553;28;20405;-50
2022/04/21 02:26:04;;;;;;;11.98;6.20;;;;;;;16.29;58.30;97758.25;5093865;28;20081;-50
2022/04/21 02:28:30;;;;;;;10.45;4.47;;;;;;;16.30;58.62;97759.84;5093718;28;20020;-50
2022/04/21 02:30:56;;;;;;;13.65;6.43;;;;;;;16.33;58.22;97760.09;5093714;28;20548;-50
2022/04/21 02:33:22;;;;;;;12.25;4.72;;;;;;;16.28;58.46;97757.47;5092405;28;20093;-50
2022/04/21 02:35:48;;;;;;;5.85;3.17;;;;;;;16.29;57.80;97753.75;5093697;28;20028;-50
2022/04/21 02:38:13;;;;;;;8.93;4.60;;;;;;;16.09;58.32;97754.47;5092120;28;20048;-49
2022/04/21 02:40:39;;;;;;;5.25;3.40;;;;;;;15.94;58.47;97751.78;5093592;28;20024;-51
2022/04/21 02:43:06;;;;;;;5.72;3.33;;;;;;;15.70;59.16;97748.72;5093560;28;20549;-50
2022/04/21 02:45:32;;;;;;;4.75;3.33;;;;;;;15.53;59.90;97749.69;5093425;28;20633;-50
2022/04/21 02:47:58;;;;;;;3.30;2.80;;;;;;;15.50;59.96;97744.88;5093367;28;20028;-50
2022/04/21 02:50:24;;;;;;;3.88;3.40;;;;;;;15.38;60.17;97742.44;5092022;28;20031;-50
2022/04/21 02:52:52;;;;;;;3.72;3.30;;;;;;;15.24;60.51;97738.63;5093300;28;20028;-50
2022/04/21 02:58:03;;;;;;;7.00;3.42;;;;;;;15.06;61.07;97741.66;5093619;28;20038;-50
2022/04/21 03:00:29;;;;;;;4.63;3.28;;;;;;;15.00;61.18;97740.81;5092312;28;20107;-50
2022/04/21 03:02:56;;;;;;;4.45;3.10;;;;;;;14.93;61.41;97732.31;5093184;28;20538;-50
2022/04/21 03:05:22;;;;;;;3.72;2.90;;;;;;;14.85;61.65;97732.75;5093060;28;20024;-50
2022/04/21 03:07:48;;;;;;;5.93;3.45;;;;;;;14.78;62.04;97731.13;5091699;28;20508;-50
2022/04/21 03:10:14;;;;;;;5.00;3.30;;;;;;;14.72;62.38;97729.50;5092998;28;20024;-49
2022/04/21 03:12:40;;;;;;;6.75;3.40;;;;;;;14.69;62.13;97724.72;5092986;28;20024;-50
2022/04/21 03:15:06;;;;;;;3.72;3.25;;;;;;;14.66;62.21;97725.22;5092935;28;20021;-50
2022/04/21 03:17:32;;;;;;;5.88;3.65;;;;;;;14.65;62.58;97718.34;5092854;28;20032;-50
2022/04/21 03:19:58;;;;;;;6.10;3.83;;;;;;;14.61;62.47;97713.78;5092789;28;20023;-50
2022/04/21 03:25:10;;;;;;;5.15;3.40;;;;;;;14.56;63.04;97712.72;5092745;28;20104;-50
2022/04/21 03:27:36;;;;;;;7.75;4.30;;;;;;;14.75;63.28;97709.72;5092591;28;20024;-51
2022/04/21 03:30:08;;;;;;;14.02;4.70;;;;;;;14.92;62.48;97699.81;5092622;28;20481;-49
2022/04/21 03:32:34;;;;;;;3.75;3.42;;;;;;;15.12;61.50;97707.09;5091314;28;20036;-49
2022/04/21 03:35:01;;;;;;;6.28;3.30;;;;;;;15.13;61.46;97699.94;5091284;28;20020;-51
2022/04/21 03:37:27;;;;;;;9.30;4.28;;;;;;;15.22;61.65;97700.28;5092256;28;20040;-50
2022/04/21 03:39:53;;;;;;;6.63;4.85;;;;;;;15.34;61.12;97700.91;5092507;28;20027;-49
2022/04/21 03:42:24;;;;;;;4.00;3.33;;;;;;;15.37;60.82;97700.38;5091108;28;20020;-50
2022/04/21 03:44:50;;;;;;;11.35;4.97;;;;;;;15.35;61.08;97695.38;5092490;28;20463;-50
2022/04/21 03:47:16;;;;;;;7.63;3.30;;;;;;;15.45;60.39;97704.38;5092246;28;20565;-50
2022/04/21 03:49:42;;;;;;;11.80;4.97;;;;;;;15.51;60.77;97698.06;5091037;28;20020;-50
2022/04/21 03:52:10;;;;;;;12.27;5.47;;;;;;;15.69;60.52;97697.63;5092227;28;20016;-50
2022/04/21 03:54:36;;;;;;;12.95;4.00;;;;;;;15.82;59.55;97696.41;5092294;28;20028;-51
2022/04/21 03:57:02;;;;;;;6.35;4.10;;;;;;;15.80;59.54;97684.50;5092178;28;20103;-50
2022/04/21 03:59:28;;;;;;;8.65;3.95;;;;;;;15.71;59.51;97687.59;5092185;28;20591;-49
2022/04/21 04:01:53;;;;;;;13.88;4.50;;;;;;;15.68;59.92;97697.91;5092158;28;20035;-50
2022/04/21 04:04:19;;;;;;;10.07;3.67;;;;;;;15.67;59.98;97693.66;5090822;28;20203;-50
2022/04/21 04:12:13;;;;;;;11.77;4.20;;;;;;;15.28;60.34;97697.41;5091895;28;20126;-49
2022/04/21 04:14:39;;;;;;;4.57;3.22;;;;;;;15.07;60.96;97693.03;5090743;28;20537;-50
2022/04/21 04:17:06;;;;;;;6.82;3.65;;;;;;;14.90;61.57;97701.91;5090575;28;20016;-51
2022/04/21 04:19:33;;;;;;;5.65;3.38;;;;;;;14.75;61.75;97701.81;5091916;28;20522;-50
2022/04/21 04:22:00;;;;;;;3.83;3.22;;;;;;;14.55;62.32;97703.19;5090530;28;20422;-49
2022/04/21 04:24:26;;;;;;;4.75;3.22;;;;;;;14.48;62.72;97707.06;5090588;28;20048;-50
2022/04/21 04:26:52;;;;;;;5.90;3.97;;;;;;;14.43;63.05;97701.72;5091868;28;20036;-50
2022/04/21 04:29:22;;;;;;;6.13;3.75;;;;;;;14.45;63.20;97708.38;5091773;28;20493;-49
2022/04/21 04:31:54;;;;;;;6.60;4.18;;;;;;;14.40;63.55;97705.66;5090497;28;20020;-50
2022/04/21 04:34:22;;;;;;;9.48;5.78;;;;;;;14.34;63.73;97707.44;5091791;28;20023;-50
2022/04/21 04:36:48;;;;;;;6.82;4.57;;;;;;;14.30;63.97;97708.19;5091506;28;20044;-50
2022/04/21 04:39:16;;;;;;;6.57;3.65;;;;;;;14.34;63.54;97704.00;5090430;28;20082;-51
2022/04/21 04:44:26;;;;;;;4.25;3.78;;;;;;;14.15;63.76;97711.47;5091979;28;20039;-50
2022/04/21 04:46:52;;;;;;;4.72;3.70;;;;;;;14.08;64.10;97711.66;5091653;28;20080;-49
2022/04/21 04:49:18;;;;;;;3.78;3.38;;;;;;;14.05;64.14;97717.44;5090272;28;20028;-49
2022/04/21 04:51:44;;;;;;;5.25;3.45;;;;;;;14.02;64.27;97711.84;5090364;28;20028;-51
2022/04/21 04:54:11;;;;;;;9.10;6.68;;;;;;;14.01;64.52;97718.97;5091572;28;20032;-50
2022/04/21 04:56:39;;;;;;;7.85;5.18;;;;;;;13.99;64.76;97711.28;5090277;28;20497;-49
2022/04/21 04:59:05;;;;;;;8.68;4.30;;;;;;;14.10;65.14;97711.41;5090211;28;20097;-49
2022/04/21 05:01:39;;;;;;;11.68;5.22;;;;;;;14.28;64.55;97708.44;5090206;28;20020;-50
2022/04/21 05:04:10;;;;;;;6.47;3.97;;;;;;;14.57;63.64;97702.97;5090267;28;20028;-51
2022/04/21 05:06:43;;;;;;;12.77;4.45;;;;;;;14.68;63.13;97702.00;5091401;28;20024;-50
2022/04/21 05:09:10;;;;;;;11.20;4.93;;;;;;;14.68;63.00;97706.47;5090085;28;20032;-50
2022/04/21 05:11:37;;;;;;;4.65;3.78;;;;;;;14.63;62.59;97706.44;5090070;28;20020;-49
2022/04/21 05:14:03;;;;;;;18.98;4.65;;;;;;;14.66;62.77;97711.22;5090085;28;20032;-50
2022/04/21 05:16:29;;;;;;;12.85;4.28;;;;;;;14.85;62.57;97709.00;5091389;28;20024;-50
2022/04/21 05:18:56;;;;;;;5.63;4.13;;;;;;;14.94;61.96;97713.56;5090014;28;20028;-50
2022/04/21 05:21:23;;;;;;;10.20;4.22;;;;;;;14.88;61.99;97711.13;5090011;28;20097;-51
2022/04/21 05:23:55;;;;;;;6.57;4.13;;;;;;;14.77;62.35;97716.34;5092336;28;20047;-50
2022/04/21 05:26:21;;;;;;;8.55;4.03;;;;;;;14.66;62.72;97705.94;5095022;28;20078;-50
2022/04/21 05:28:47;;;;;;;6.32;3.67;;;;;;;14.67;62.88;97707.50;5094951;28;20098;-50
2022/04/21 05:31:14;;;;;;;9.15;3.83;;;;;;;14.68;62.66;97709.91;5093547;28;20509;-49
2022/04/21 05:33:40;;;;;;;6.18;4.28;;;;;;;14.69;62.33;97710.69;5094904;28;20509;-50
2022/04/21 05:36:06;;;;;;;9.52;4.68;;;;;;;14.68;62.46;97707.28;5093212;28;20432;-50
2022/04/21 05:38:33;;;;;;;7.43;4.40;;;;;;;14.64;62.50;97703.53;5093551;28;20117;-50
2022/04/21 05:40:59;;;;;;;9.55;6.30;;;;;;;14.57;62.73;97708.25;5093392;28;20498;-49
2022/04/21 05:43:39;;;;;;;14.65;7.10;;;;;;;14.54;62.94;97706.84;5094670;28;20051;-50
2022/04/21 05:46:06;;;;;;;15.32;5.45;;;;;;;14.50;63.09;97707.59;5094632;28;20020;-51
2022/04/21 05:48:32;;;;;;;7.43;4.95;;;;;;;14.52;63.03;97710.78;5093235;28;20024;-50
2022/04/21 05:50:59;;;;;;;15.77;5.93;;;;;;;14.54;62.71;97701.56;5094541;28;20367;-50
2022/04/21 05:53:27;;;;;;;9.90;5.50;;;;;;;14.58;62.76;97705.34;5093177;28;20028;-50
2022/04/21 05:55:53;;;;;;;22.75;11.90;;;;;;;14.68;62.52;97699.34;5094455;28;20031;-50
2022/04/21 05:58:20;;;;;;;15.75;8.00;;;;;;;14.82;62.39;97704.22;5093145;28;20397;-49
2022/04/21 06:00:46;;;;;;;17.65;7.30;;;;;;;14.94;62.08;97708.28;5093310;28;20469;-49
2022/04/21 06:03:12;;;;;;;20.20;6.32;;;;;;;15.06;61.85;97694.91;5094345;28;20031;-50
2022/04/21 06:05:41;;;;;;;5.53;4.72;;;;;;;15.22;61.35;97692.38;5094266;28;20020;-50
2022/04/21 06:08:07;;;;;;;18.83;5.10;;;;;;;15.43;60.97;97690.63;5094173;28;20024;-49
2022/04/21 06:10:36;;;;;;;17.48;6.18;;;;;;;15.72;60.37;97680.47;5092859;28;20401;-51
2022/04/21 06:13:03;;;;;;;19.55;6.88;;;;;;;15.94;59.96;97683.75;5094157;28;20099;-50
2022/04/21 06:15:32;;;;;;;23.73;8.55;;;;;;;16.12;59.57;97674.53;5094062;28;20023;-50
2022/04/21 06:17:59;;;;;;;15.25;5.65;;;;;;;16.42;58.92;97674.84;5092717;28;20058;-50
2022/04/21 06:20:28;;;;;;;17.58;5.70;;;;;;;16.62;58.12;97679.38;5093990;28;20028;-50
2022/04/21 06:22:55;;;;;;;9.23;4.03;;;;;;;16.85;57.39;97678.88;5092551;28;20540;-50
2022/04/21 06:25:22;;;;;;;26.42;7.95;;;;;;;17.01;56.49;97673.59;5092613;28;20031;-50
2022/04/21 06:27:48;;;;;;;18.15;5.53;;;;;;;17.14;56.00;97675.69;5092513;28;20611;-50
2022/04/21 06:30:14;;;;;;;27.30;7.78;;;;;;;17.20;55.86;97671.16;5093756;28;20020;-50
2022/04/21 06:32:40;;;;;;;27.52;5.82;;;;;;;17.32;55.79;97676.97;5092462;28;20031;-50
2022/04/21 06:35:06;;;;;;;27.73;5.50;;;;;;;17.55;55.53;97672.94;5092568;28;20024;-48
2022/04/21 06:37:32;;;;;;;17.52;4.78;;;;;;;17.86;54.76;97670.19;5093360;28;20051;-51
2022/04/21 06:39:58;;;;;;;20.42;5.90;;;;;;;18.01;54.26;97671.97;5092278;28;20024;-51
2022/04/21 06:42:24;;;;;;;18.98;5.78;;;;;;;18.17;53.72;97671.63;5093554;28;20032;-50
2022/04/21 06:50:17;;;;;;;34.03;6.70;;;;;;;18.96;51.98;97660.19;5093420;28;20509;-50
2022/04/21 06:52:43;;;;;;;33.63;7.05;;;;;;;19.38;50.95;97661.38;5093378;28;20016;-49
2022/04/21 06:55:09;;;;;;;19.23;5.00;;;;;;;19.68;50.22;97659.41;5092009;28;20188;-51
2022/04/21 06:57:35;;;;;;;13.02;4.80;;;;;;;19.87;49.50;97652.28;5093240;28;20016;-50
2022/04/21 07:00:01;;;;;;;14.73;4.22;;;;;;;19.95;48.86;97656.19;5093219;28;20020;-51
2022/04/21 07:02:37;;;;;;;32.83;6.55;;;;;;;19.92;48.86;97648.75;5093189;28;20024;-51
2022/04/21 07:05:05;;;;;;;26.60;6.28;;;;;;;20.42;48.01;97646.44;5093106;28;20119;-50
2022/04/21 07:07:31;;;;;;;16.15;5.25;;;;;;;20.81;47.28;97648.00;5091715;28;20106;-51
2022/04/21 07:09:56;;;;;;;23.05;5.85;;;;;;;21.60;46.02;97643.66;5093072;28;20493;-51
2022/04/21 07:12:29;;;;;;;44.08;8.45;;;;;;;22.51;43.89;97638.19;5093021;28;20103;-51
2022/04/21 07:15:03;;;;;;;25.23;6.30;;;;;;;23.08;42.43;97629.63;5093023;28;20447;-49
2022/04/21 07:17:29;;;;;;;19.42;6.95;;;;;;;23.40;41.44;97624.22;5092994;28;20024;-51
2022/04/21 07:19:56;;;;;;;27.15;6.63;;;;;;;23.59;40.56;97627.41;5092807;28;20062;-51
2022/04/21 07:22:25;;;;;;;24.50;6.57;;;;;;;23.88;40.15;97620.72;5092753;28;20040;-51
2022/04/21 07:24:52;;;;;;;17.20;4.53;;;;;;;24.63;39.03;97615.19;5092756;28;20023;-51
2022/04/21 07:27:18;;;;;;;18.90;5.15;;;;;;;25.82;36.77;97616.16;5092737;28;20094;-51
2022/04/21 07:29:43;;;;;;;34.90;6.50;;;;;;;26.96;34.72;97612.47;5092596;28;20034;-51
2022/04/21 07:32:10;;;;;;;28.70;5.60;;;;;;;27.96;32.85;97610.25;5092579;28;20508;-52
2022/04/21 07:34:37;;;;;;;11.98;3.90;;;;;;;28.36;32.00;97601.34;5092591;28;20016;-51
2022/04/21 07:37:03;;;;;;;11.15;4.32;;;;;;;28.61;30.87;97599.31;5092259;28;20120;-51
2022/04/21 07:39:29;;;;;;;6.90;3.90;;;;;;;28.90;30.60;97596.59;5092773;28;20379;-51
2022/04/21 07:41:57;;;;;;;10.55;3.53;;;;;;;29.20;30.35;97591.56;5092444;28;20020;-52
2022/04/21 07:44:23;;;;;;;7.63;4.30;;;;;;;29.36;29.29;97586.91;5092414;28;20024;-50
2022/04/21 07:46:49;;;;;;;6.88;3.75;;;;;;;29.71;29.14;97586.16;5090607;28;20024;-50
2022/04/21 07:54:46;;;;;;;10.52;3.65;;;;;;;31.05;26.84;97568.56;5092367;28;20412;-51
2022/04/21 07:57:12;;;;;;;17.10;5.63;;;;;;;31.01;26.50;97570.44;5092508;28;20397;-52
2022/04/21 07:59:37;;;;;;;9.02;3.67;;;;;;;31.61;25.68;97569.78;5092208;28;20028;-51
2022/04/21 08:02:04;;;;;;;5.43;3.33;;;;;;;32.34;25.10;97575.75;5090782;28;20512;-51
2022/04/21 08:04:30;;;;;;;10.88;3.60;;;;;;;33.28;24.21;97557.53;5092129;28;20058;-51
2022/04/21 08:06:59;;;;;;;12.88;4.03;;;;;;;33.10;24.09;97560.94;5092010;28;20055;-51
2022/04/21 08:09:24;;;;;;;7.75;4.15;;;;;;;32.63;24.05;97565.19;5091964;28;20028;-52
2022/04/21 08:11:50;;;;;;;15.75;4.30;;;;;;;32.37;24.58;97555.97;5092270;28;20020;-52
2022/04/21 08:14:17;;;;;;;16.58;4.80;;;;;;;31.24;26.01;97567.69;5092062;28;20020;-51
2022/04/21 08:16:43;;;;;;;24.80;5.45;;;;;;;30.92;26.49;97565.25;5090775;28;20023;-51
2022/04/21 08:19:10;;;;;;;9.02;3.88;;;;;;;30.03;27.29;97558.97;5090622;28;20028;-51
2022/04/21 08:21:37;;;;;;;14.57;4.57;;;;;;;30.04;27.60;97552.41;5091931;28;20024;-50
2022/04/21 08:32:33;;;;;;;8.95;5.22;;;;;;;33.51;23.46;97547.19;5091858;28;20039;-51
2022/04/21 08:35:03;;;;;;;4.53;2.80;;;;;;;34.32;22.31;97553.38;5092102;28;20032;-52
2022/04/21 08:37:33;;;;;;;17.85;6.25;;;;;;;34.08;21.66;97556.78;5091585;28;20075;-51
2022/04/21 08:40:00;;;;;;;8.48;4.15;;;;;;;33.59;22.36;97546.06;5091982;28;20171;-51
2022/04/21 08:42:30;;;;;;;8.98;2.63;;;;;;;33.65;21.45;97554.69;5090452;28;20035;-51
2022/04/21 08:44:57;;;;;;;9.07;4.00;;;;;;;33.37;22.64;97541.69;5090407;28;20055;-51
2022/04/21 08:47:24;;;;;;;20.73;4.85;;;;;;;32.46;23.43;97561.13;5091711;28;20024;-52
2022/04/21 08:49:54;;;;;;;12.93;5.20;;;;;;;31.22;25.02;97559.13;5073800;28;20028;-51
2022/04/21 08:52:21;;;;;;;9.73;4.30;;;;;;;29.85;26.12;97561.31;5090670;28;20051;-51
2022/04/21 08:54:47;;;;;;;9.80;5.63;;;;;;;28.68;28.17;97563.63;5073487;28;20031;-51
2022/04/21 08:57:13;;;;;;;13.32;4.70;;;;;;;27.77;29.47;97564.19;5090318;28;20024;-52
2022/04/21 08:59:38;;;;;;;22.48;5.88;;;;;;;26.81;30.92;97568.94;5094550;28;20111;-50
2022/04/21 09:02:04;;;;;;;11.93;4.28;;;;;;;25.74;32.34;97567.84;5094224;28;20477;-51
2022/04/21 09:04:30;;;;;;;21.50;5.00;;;;;;;25.15;33.56;97563.25;5095531;28;20024;-51
2022/04/21 09:07:08;;;;;;;19.63;7.15;;;;;;;24.71;34.48;97556.16;5095380;28;20035;-51
2022/04/21 09:09:34;;;;;;;24.02;6.40;;;;;;;24.41;35.03;97549.91;5094078;28;20084;-50
2022/04/21 09:12:00;;;;;;;19.63;7.45;;;;;;;24.43;34.93;97553.06;5095362;28;20491;-51
2022/04/21 09:14:26;;;;;;;21.33;6.45;;;;;;;25.19;34.47;97558.78;5094032;28;20020;-51
2022/04/21 09:16:51;;;;;;;15.23;5.70;;;;;;;26.02;33.34;97557.38;5093899;28;20024;-52
2022/04/21 09:19:17;;;;;;;8.13;4.70;;;;;;;28.19;30.55;97553.06;5095158;28;20028;-51
2022/04/21 09:21:43;;;;;;;15.18;4.57;;;;;;;30.83;27.19;97545.75;5095138;28;20371;-51
2022/04/21 09:24:22;;;;;;;15.45;4.63;;;;;;;31.26;25.71;97541.00;5093823;28;20028;-51
2022/04/21 09:26:48;;;;;;;10.90;4.72;;;;;;;30.61;26.21;97531.84;5093703;28;20531;-51
2022/04/21 09:29:28;;;;;;;15.30;4.32;;;;;;;31.25;25.19;97528.59;5094915;28;20028;-51
2022/04/21 09:32:02;;;;;;;8.38;5.07;;;;;;;31.68;25.06;97523.00;5094969;28;20070;-52
2022/04/21 09:34:29;;;;;;;13.32;5.30;;;;;;;31.37;24.67;97533.00;5095271;28;20044;-52
2022/04/21 09:36:57;;;;;;;9.98;4.95;;;;;;;30.97;25.83;97520.81;5094546;28;20447;-52
2022/04/21 09:39:23;;;;;;;7.95;4.10;;;;;;;31.94;24.10;97512.06;5093500;28;20517;-50
2022/04/21 09:41:55;;;;;;;15.02;4.72;;;;;;;32.14;23.33;97506.50;5094771;28;20077;-52
2022/04/21 09:47:18;;;;;;;10.52;3.78;;;;;;;33.53;22.47;97500.59;5094702;28;20456;-51
2022/04/21 09:49:44;;;;;;;9.25;3.78;;;;;;;33.87;21.74;97495.69;5093208;28;20028;-49
2022/04/21 09:52:11;;;;;;;7.88;3.67;;;;;;;33.99;21.64;97506.22;5094532;28;20024;-51
2022/04/21 09:54:39;;;;;;;8.38;4.35;;;;;;;34.40;21.08;97505.16;5093187;28;20044;-51
2022/04/21 09:57:05;;;;;;;8.65;3.78;;;;;;;34.48;20.75;97503.22;5094499;28;20024;-52
2022/04/21 09:59:35;;;;;;;8.25;3.70;;;;;;;33.80;21.63;97498.38;5094406;28;20063;-52
2022/04/21 10:02:04;;;;;;;8.02;3.78;;;;;;;33.18;21.77;97486.41;5093180;28;20059;-51
2022/04/21 10:04:31;;;;;;;15.60;3.78;;;;;;;31.92;23.06;97492.66;5094387;28;20024;-52
2022/04/21 10:06:57;;;;;;;9.27;3.80;;;;;;;30.21;24.65;97491.66;5094269;28;20023;-52
2022/04/21 10:09:24;;;;;;;11.05;3.80;;;;;;;28.82;26.07;97488.38;5093843;28;20023;-50
2022/04/21 10:11:52;;;;;;;7.75;3.78;;;;;;;28.19;27.34;97488.31;5092851;28;20024;-52
2022/04/21 10:14:18;;;;;;;6.05;4.00;;;;;;;27.96;27.74;97483.47;5094173;28;20024;-51
2022/04/21 10:16:44;;;;;;;6.65;4.32;;;;;;;27.70;28.19;97481.19;5094083;28;20084;-51
2022/04/21 10:19:12;;;;;;;6.72;4.93;;;;;;;27.27;28.72;97482.69;5092750;28;20414;-51
2022/04/21 10:22:00;;;;;;;6.78;4.63;;;;;;;26.76;29.81;97477.63;5093994;28;20484;-51
2022/04/21 10:24:27;;;;;;;10.45;4.10;;;;;;;26.53;30.15;97471.88;5094029;28;20497;-50
2022/04/21 10:26:54;;;;;;;7.13;4.40;;;;;;;26.59;29.47;97469.78;5092580;28;20039;-51
2022/04/21 10:29:25;;;;;;;7.03;4.80;;;;;;;27.37;29.14;97468.72;5093781;28;20048;-50
2022/04/21 10:31:54;;;;;;;9.10;4.70;;;;;;;29.20;26.79;97459.91;5092565;28;20040;-51
2022/04/21 10:34:42;;;;;;;5.82;4.50;;;;;;;29.97;25.46;97463.00;5093821;28;20834;-52
2022/04/21 10:37:15;;;;;;;11.23;5.78;;;;;;;29.62;25.21;97459.25;5092151;28;20514;-52
2022/04/21 10:40:04;;;;;;;11.65;4.35;;;;;;;29.06;26.04;97454.19;5092360;28;20457;-51
2022/04/21 10:42:57;;;;;;;6.30;4.35;;;;;;;28.41;27.22;97457.25;5093585;28;20020;-51
2022/04/21 10:45:31;;;;;;;16.15;5.13;;;;;;;27.68;27.92;97461.88;5093581;28;20065;-50
2022/04/21 10:48:12;;;;;;;6.43;4.15;;;;;;;27.27;28.30;97461.91;5093465;28;20020;-51
2022/04/21 10:50:43;;;;;;;10.40;5.15;;;;;;;26.79;29.35;97458.13;5093384;28;20106;-51
2022/04/21 10:58:39;;;;;;;6.85;5.30;;;;;;;26.26;30.67;97463.31;5093564;28;20102;-51
2022/04/21 11:01:28;;;;;;;6.07;4.68;;;;;;;26.76;30.15;97466.06;5091907;28;20028;-51
2022/04/21 11:04:08;;;;;;;9.02;4.63;;;;;;;27.74;29.25;97459.75;5093288;28;20031;-50
2022/04/21 11:06:42;;;;;;;6.03;4.80;;;;;;;28.67;27.60;97454.84;5091758;28;20067;-50
2022/04/21 11:09:28;;;;;;;10.77;4.70;;;;;;;29.68;26.29;97460.53;5093082;28;20024;-51
2022/04/21 11:11:54;;;;;;;10.45;4.68;;;;;;;30.55;24.89;97468.28;5091563;28;20033;-51
2022/04/21 11:14:31;;;;;;;21.67;5.28;;;;;;;30.83;24.18;97462.53;5093020;28;20077;-51
2022/04/21 11:16:58;;;;;;;12.63;4.63;;;;;;;30.21;24.67;97454.53;5092936;28;20403;-51
2022/04/21 11:19:31;;;;;;;8.88;4.60;;;;;;;29.53;24.94;97450.53;5092827;28;20030;-51
2022/04/21 11:21:57;;;;;;;8.27;4.43;;;;;;;29.15;25.48;97449.38;5092148;28;20059;-51
2022/04/21 11:24:24;;;;;;;10.95;4.32;;;;;;;28.75;25.67;97457.72;5091478;28;20031;-51
2022/04/21 11:27:13;;;;;;;11.13;4.90;;;;;;;28.46;26.57;97454.31;5091363;28;20444;-50
2022/04/21 11:29:38;;;;;;;15.25;5.75;;;;;;;28.13;26.90;97451.91;5091332;28;20472;-51
2022/04/21 11:32:04;;;;;;;7.43;4.88;;;;;;;27.85;27.77;97458.91;5092686;28;20099;-52
2022/04/21 11:34:30;;;;;;;11.57;5.60;;;;;;;28.13;27.93;97458.13;5092581;28;20027;-51
2022/04/21 11:37:01;;;;;;;10.15;6.43;;;;;;;28.85;27.49;97455.25;5090926;28;20048;-52
2022/04/21 11:39:27;;;;;;;7.20;4.82;;;;;;;29.91;26.10;97451.69;5092482;28;20020;-51
2022/04/21 11:41:53;;;;;;;10.93;5.20;;;;;;;31.48;23.93;97443.72;5091142;28;20031;-51
2022/04/21 11:44:23;;;;;;;7.75;4.72;;;;;;;32.92;22.59;97434.94;5092393;28;20028;-52
2022/04/21 11:46:49;;;;;;;12.90;5.57;;;;;;;32.96;22.17;97436.56;5092674;28;20024;-52
2022/04/21 11:49:15;;;;;;;5.05;4.55;;;;;;;32.41;22.29;97423.72;5092277;28;20028;-52
2022/04/21 11:51:42;;;;;;;6.60;4.10;;;;;;;32.58;21.88;97425.03;5090961;28;20462;-52
2022/04/21 11:54:10;;;;;;;8.95;4.28;;;;;;;33.02;21.78;97420.63;5092527;28;20397;-51
2022/04/21 11:56:38;;;;;;;11.35;4.50;;;;;;;33.74;20.77;97413.59;5092476;28;20561;-51
2022/04/21 11:59:10;;;;;;;10.20;4.70;;;;;;;34.66;19.96;97402.41;5092200;28;20501;-51
2022/04/21 12:07:15;;;;;;;11.68;4.55;;;;;;;34.85;19.32;97393.78;5091346;28;20536;-51
2022/04/21 12:09:41;;;;;;;10.88;7.60;;;;;;;33.61;20.35;97396.84;5090794;28;20127;-52
2022/04/21 12:12:08;;;;;;;6.40;3.75;;;;;;;33.48;20.11;97395.63;5091962;28;20028;-51
2022/04/21 12:14:36;;;;;;;6.30;3.97;;;;;;;34.22;19.60;97386.06;5091996;28;20024;-52
2022/04/21 12:17:06;;;;;;;8.10;4.50;;;;;;;34.47;19.11;97384.47;5091905;28;20024;-51
2022/04/21 12:19:44;;;;;;;7.25;4.63;;;;;;;34.17;19.03;97388.41;5090743;28;20028;-51
2022/04/21 12:22:21;;;;;;;10.40;5.28;;;;;;;33.60;20.02;97372.72;5091935;28;20028;-52
2022/04/21 12:24:54;;;;;;;8.32;3.55;;;;;;;32.71;20.51;97381.28;5090940;28;20058;-51
2022/04/21 12:27:22;;;;;;;69.93;8.45;;;;;;;31.75;20.99;97380.06;5090485;28;20024;-51